Terminal Aerodrome Forecast
Issued by NWS Bismarck, ND

Home | Current Version | Previous Version | Graphics & Text | Print | Product List | Glossary On
Versions: 1 2 3 4 5 6 7 8 9 10 11 12 13 14 15 16 17 18 19 20 21
413
FTUS43 KBIS 211139
TAFBIS
TAF
KBIS 211139Z 2112/2212 27021G28KT P6SM VCSH BKN150 WS020/29040KT
     FM211500 28018G29KT P6SM -RA SCT035 BKN090
     FM211800 28022G33KT P6SM -RA BKN045
     FM212300 28013G21KT P6SM BKN110
     FM220200 27008KT P6SM SCT140
     FM220500 27007KT P6SM FEW250
     FM220700 26006KT P6SM SKC=

USA.gov is the U.S. government's official web portal to all federal, state and local government web resources and services.